createdAt,value
2017-11-07T00:01:01.498Z,10.65
2017-11-07T00:03:29.033Z,10.15
2017-11-07T00:05:57.368Z,8.95
2017-11-07T00:08:24.933Z,10.18
2017-11-07T00:10:52.464Z,11.85
2017-11-07T00:13:20.022Z,10.70
2017-11-07T00:15:47.565Z,10.93
2017-11-07T00:18:15.124Z,9.20
2017-11-07T00:20:43.436Z,10.75
2017-11-07T00:23:10.983Z,10.20
2017-11-07T00:25:38.555Z,9.93
2017-11-07T00:28:06.081Z,10.85
2017-11-07T00:30:34.416Z,8.52
2017-11-07T00:33:01.956Z,8.60
2017-11-07T00:35:29.528Z,7.25
2017-11-07T00:37:57.067Z,7.78
2017-11-07T00:40:24.636Z,8.50
2017-11-07T00:42:52.158Z,7.12
2017-11-07T00:45:20.453Z,8.40
2017-11-07T00:47:48.785Z,6.47
2017-11-07T00:50:16.304Z,7.35
2017-11-07T00:52:43.868Z,7.10
2017-11-07T00:55:11.407Z,6.90
2017-11-07T00:57:39.715Z,6.50
2017-11-07T01:00:07.296Z,7.05
2017-11-07T01:02:34.825Z,6.93
2017-11-07T01:05:02.374Z,7.40
2017-11-07T01:07:30.679Z,7.20
2017-11-07T01:09:58.252Z,6.80
2017-11-07T01:12:25.791Z,6.68
2017-11-07T01:14:53.336Z,7.57
2017-11-07T01:17:21.667Z,7.20
2017-11-07T01:19:49.215Z,6.30
2017-11-07T01:22:16.762Z,8.35
2017-11-07T01:24:44.308Z,8.30
2017-11-07T01:27:12.639Z,8.15
2017-11-07T01:29:40.194Z,8.52
2017-11-07T01:32:08.500Z,8.38
2017-11-07T01:34:36.121Z,9.48
2017-11-07T01:37:03.668Z,8.40
2017-11-07T01:39:31.231Z,8.20
2017-11-07T01:41:58.754Z,7.65
2017-11-07T01:44:26.277Z,7.30
2017-11-07T01:46:53.844Z,7.45
2017-11-07T01:49:21.385Z,7.20
2017-11-07T01:51:48.960Z,7.28
2017-11-07T01:54:16.483Z,6.07
2017-11-07T01:56:44.774Z,5.85
2017-11-07T01:59:12.341Z,6.05
2017-11-07T02:01:39.884Z,7.18
2017-11-07T02:04:08.210Z,6.15
2017-11-07T02:06:35.744Z,6.20
2017-11-07T02:09:03.313Z,6.65
2017-11-07T02:11:30.862Z,5.70
2017-11-07T02:13:58.389Z,6.03
2017-11-07T02:16:25.966Z,4.80
2017-11-07T02:18:54.271Z,5.70
2017-11-07T02:21:21.811Z,4.60
2017-11-07T02:23:50.132Z,4.00
2017-11-07T02:26:17.650Z,4.55
2017-11-07T02:28:45.958Z,5.78
2017-11-07T02:31:13.490Z,4.62
2017-11-07T02:33:41.817Z,5.03
2017-11-07T02:36:09.338Z,4.50
2017-11-07T02:38:36.865Z,4.60
2017-11-07T02:41:04.417Z,5.40
2017-11-07T02:43:31.938Z,5.78
2017-11-07T02:45:59.492Z,4.72
2017-11-07T02:48:27.024Z,4.62
2017-11-07T02:50:55.356Z,5.40
2017-11-07T02:53:22.877Z,4.35
2017-11-07T02:55:51.165Z,4.25
2017-11-07T02:58:18.731Z,5.68
2017-11-07T03:00:46.260Z,7.93
2017-11-07T03:03:13.841Z,6.47
2017-11-07T03:05:41.390Z,7.87
2017-11-07T03:08:09.704Z,7.32
2017-11-07T03:10:37.250Z,5.28
2017-11-07T03:13:04.776Z,6.22
2017-11-07T03:15:32.321Z,7.43
2017-11-07T03:17:59.854Z,7.10
2017-11-07T03:20:27.418Z,10.93
2017-11-07T03:22:54.950Z,6.82
2017-11-07T03:25:23.262Z,6.85
2017-11-07T03:27:50.821Z,6.75
2017-11-07T03:30:18.398Z,9.55
2017-11-07T03:32:45.983Z,7.40
2017-11-07T03:35:13.557Z,9.40
2017-11-07T03:37:41.902Z,8.00
2017-11-07T03:40:09.484Z,8.05
2017-11-07T03:42:37.087Z,8.30
2017-11-07T03:45:04.665Z,7.20
2017-11-07T03:47:32.258Z,11.90
2017-11-07T03:49:59.847Z,13.43
2017-11-07T03:52:27.429Z,9.38
2017-11-07T03:54:55.786Z,9.45
2017-11-07T03:57:24.118Z,8.73
2017-11-07T03:59:51.683Z,9.35
2017-11-07T04:02:19.275Z,10.23
2017-11-07T04:04:46.826Z,9.27
2017-11-07T04:07:14.411Z,9.18
2017-11-07T04:09:41.964Z,7.93
2017-11-07T04:12:09.543Z,7.10
2017-11-07T04:14:37.124Z,9.25
2017-11-07T04:17:05.455Z,9.48
2017-11-07T04:19:33.053Z,9.05
2017-11-07T04:22:01.392Z,13.30
2017-11-07T04:24:28.983Z,11.65
2017-11-07T04:26:56.564Z,8.43
2017-11-07T04:29:24.917Z,9.00
2017-11-07T04:31:52.512Z,10.93
2017-11-07T04:34:20.858Z,11.25
2017-11-07T04:36:48.451Z,10.32
2017-11-07T04:39:16.786Z,9.68
2017-11-07T04:41:44.367Z,8.27
2017-11-07T04:44:11.923Z,8.77
2017-11-07T04:46:39.502Z,8.65
2017-11-07T04:49:07.058Z,9.65
2017-11-07T04:51:34.655Z,10.20
2017-11-07T04:54:02.234Z,10.52
2017-11-07T04:56:29.839Z,10.73
2017-11-07T04:58:57.420Z,9.98
2017-11-07T05:01:25.769Z,8.77
2017-11-07T05:03:53.369Z,9.88
2017-11-07T05:06:21.704Z,10.65
2017-11-07T05:08:49.291Z,9.98
2017-11-07T05:11:16.860Z,9.07
2017-11-07T05:13:44.463Z,10.60
2017-11-07T05:16:12.052Z,9.15
2017-11-07T05:18:39.623Z,10.30
2017-11-07T05:21:07.206Z,10.15
2017-11-07T05:23:34.775Z,10.10
2017-11-07T05:26:03.209Z,9.68
2017-11-07T05:28:30.779Z,10.45
2017-11-07T05:30:58.377Z,8.45
2017-11-07T05:33:25.934Z,11.02
2017-11-07T05:35:53.514Z,9.75
2017-11-07T05:38:21.861Z,9.18
2017-11-07T05:40:50.195Z,8.82
2017-11-07T05:43:17.802Z,10.30
2017-11-07T05:45:45.385Z,9.38
2017-11-07T05:48:12.976Z,9.30
2017-11-07T05:50:40.555Z,14.35
2017-11-07T05:53:08.171Z,9.15
2017-11-07T05:55:36.499Z,11.38
2017-11-07T05:58:04.092Z,9.10
2017-11-07T06:00:31.697Z,11.85
2017-11-07T06:03:00.062Z,12.50
2017-11-07T06:05:28.391Z,12.20
2017-11-07T06:07:56.427Z,10.88
2017-11-07T06:10:24.781Z,10.80
2017-11-07T06:12:52.368Z,11.63
2017-11-07T06:15:20.714Z,12.43
2017-11-07T06:17:48.288Z,12.43
2017-11-07T06:20:15.869Z,12.07
2017-11-07T06:22:44.232Z,11.68
2017-11-07T06:25:11.785Z,12.07
2017-11-07T06:27:39.399Z,10.25
2017-11-07T06:30:06.970Z,10.90
2017-11-07T06:32:34.558Z,10.50
2017-11-07T06:35:02.133Z,8.80
2017-11-07T06:37:30.748Z,8.80
2017-11-07T06:39:58.474Z,7.82
2017-11-07T06:42:27.579Z,11.20
2017-11-07T06:44:55.166Z,9.23
2017-11-07T06:47:23.507Z,14.63
2017-11-07T06:49:51.078Z,11.85
2017-11-07T06:52:18.661Z,12.15
2017-11-07T06:54:46.235Z,10.98
2017-11-07T06:57:14.606Z,16.85
2017-11-07T06:59:42.183Z,12.30
2017-11-07T07:02:10.566Z,13.10
2017-11-07T07:04:38.152Z,12.45
2017-11-07T07:07:05.732Z,16.37
2017-11-07T07:09:33.328Z,16.10
2017-11-07T07:12:00.904Z,15.20
2017-11-07T07:14:29.275Z,16.08
2017-11-07T07:16:56.841Z,16.08
2017-11-07T07:19:25.230Z,22.55
2017-11-07T07:21:53.595Z,19.33
2017-11-07T07:24:21.175Z,18.05
2017-11-07T07:26:49.520Z,20.05
2017-11-07T07:29:17.073Z,19.70
2017-11-07T07:31:44.666Z,17.77
2017-11-07T07:34:12.256Z,16.30
2017-11-07T07:36:40.613Z,15.98
2017-11-07T07:39:08.179Z,13.38
2017-11-07T07:41:36.513Z,17.10
2017-11-07T07:44:04.095Z,16.33
2017-11-07T07:46:31.682Z,13.62
2017-11-07T07:49:00.641Z,12.55
2017-11-07T07:51:28.230Z,11.55
2017-11-07T07:53:55.822Z,12.63
2017-11-07T07:56:23.423Z,14.85
2017-11-07T07:58:51.002Z,13.62
2017-11-07T08:01:18.614Z,10.57
2017-11-07T08:03:46.204Z,11.52
2017-11-07T08:06:13.795Z,11.77
2017-11-07T08:08:41.411Z,12.55
2017-11-07T08:11:09.037Z,11.68
2017-11-07T08:13:36.610Z,10.65
2017-11-07T08:16:04.941Z,10.55
2017-11-07T08:18:33.292Z,11.12
2017-11-07T08:21:00.935Z,11.73
2017-11-07T08:23:29.289Z,10.27
2017-11-07T08:25:56.885Z,11.48
2017-11-07T08:28:25.268Z,10.57
2017-11-07T08:30:53.616Z,11.95
2017-11-07T08:33:21.175Z,9.20
2017-11-07T08:35:48.781Z,10.30
2017-11-07T08:38:16.365Z,10.18
2017-11-07T08:40:43.995Z,11.63
2017-11-07T08:43:12.352Z,12.18
2017-11-07T08:45:39.986Z,13.20
2017-11-07T08:48:07.576Z,12.73
2017-11-07T08:50:35.156Z,11.57
2017-11-07T08:53:03.518Z,13.13
2017-11-07T08:55:31.112Z,10.27
2017-11-07T08:57:59.489Z,10.25
2017-11-07T09:00:27.855Z,12.20
2017-11-07T09:02:56.228Z,12.27
2017-11-07T09:05:23.838Z,11.85
2017-11-07T09:07:51.401Z,10.93
2017-11-07T09:10:18.978Z,11.23
2017-11-07T09:12:46.556Z,11.27
2017-11-07T09:15:14.189Z,12.55
2017-11-07T09:17:41.762Z,11.25
2017-11-07T09:20:09.447Z,13.40
2017-11-07T09:22:37.024Z,13.82
2017-11-07T09:25:05.377Z,13.70
2017-11-07T09:27:33.044Z,13.68
2017-11-07T09:30:02.218Z,13.10
2017-11-07T09:32:29.923Z,12.27
2017-11-07T09:34:57.494Z,14.90
2017-11-07T09:37:25.107Z,14.77
2017-11-07T09:39:52.687Z,12.80
2017-11-07T09:42:20.499Z,11.90
2017-11-07T09:44:48.283Z,12.65
2017-11-07T09:47:15.875Z,12.75
2017-11-07T09:49:43.464Z,13.60
2017-11-07T09:52:11.040Z,11.85
2017-11-07T09:54:38.647Z,11.65
2017-11-07T09:57:06.219Z,13.40
2017-11-07T09:59:33.805Z,12.15
2017-11-07T10:02:01.400Z,11.60
2017-11-07T10:04:28.989Z,12.05
2017-11-07T10:06:56.602Z,12.23
2017-11-07T10:09:24.210Z,12.55
2017-11-07T10:11:52.580Z,14.20
2017-11-07T10:14:20.897Z,12.93
2017-11-07T10:16:48.479Z,14.32
2017-11-07T10:19:16.098Z,14.48
2017-11-07T10:21:44.449Z,14.65
2017-11-07T10:24:12.046Z,15.38
2017-11-07T10:26:39.608Z,17.12
2017-11-07T10:29:07.220Z,17.92
2017-11-07T10:31:34.792Z,16.75
2017-11-07T10:34:02.364Z,18.08
2017-11-07T10:36:29.952Z,18.58
2017-11-07T10:38:58.286Z,18.92
2017-11-07T10:41:25.889Z,18.55
2017-11-07T10:43:54.206Z,19.30
2017-11-07T10:46:21.820Z,19.62
2017-11-07T10:48:50.175Z,18.45
2017-11-07T10:51:17.761Z,18.25
2017-11-07T10:53:46.102Z,19.90
2017-11-07T10:56:13.684Z,17.40
2017-11-07T10:58:41.267Z,17.30
2017-11-07T11:01:09.616Z,18.40
2017-11-07T11:03:37.227Z,16.40
2017-11-07T11:06:05.548Z,19.25
2017-11-07T11:08:33.123Z,16.95
2017-11-07T11:11:00.697Z,16.70
2017-11-07T11:13:28.315Z,17.08
2017-11-07T11:15:55.923Z,17.83
2017-11-07T11:18:23.484Z,16.65
2017-11-07T11:20:51.085Z,15.15
2017-11-07T11:23:18.665Z,16.27
2017-11-07T11:25:46.224Z,15.00
2017-11-07T11:28:13.807Z,14.73
2017-11-07T11:30:41.371Z,15.30
2017-11-07T11:33:08.967Z,14.50
2017-11-07T11:35:36.517Z,13.73
2017-11-07T11:38:04.125Z,11.50
2017-11-07T11:40:31.692Z,14.15
2017-11-07T11:42:59.271Z,12.98
2017-11-07T11:45:26.859Z,13.32
2017-11-07T11:47:54.409Z,11.93
2017-11-07T11:50:21.994Z,13.18
2017-11-07T11:52:49.562Z,12.45
2017-11-07T11:55:17.146Z,12.00
2017-11-07T11:57:45.464Z,12.15
2017-11-07T12:00:13.034Z,13.98
2017-11-07T12:02:40.613Z,14.07
2017-11-07T12:05:08.197Z,14.05
2017-11-07T12:07:36.567Z,13.48
2017-11-07T12:10:04.136Z,14.85
2017-11-07T12:12:31.743Z,14.65
2017-11-07T12:14:59.333Z,13.70
2017-11-07T12:17:26.904Z,15.80
2017-11-07T12:19:54.508Z,14.52
2017-11-07T12:22:22.097Z,14.63
2017-11-07T12:24:49.706Z,14.73
2017-11-07T12:27:17.275Z,15.98
2017-11-07T12:29:44.861Z,15.20
2017-11-07T12:32:13.218Z,13.55
2017-11-07T12:34:41.567Z,14.18
2017-11-07T12:37:09.924Z,16.25
2017-11-07T12:39:37.488Z,18.27
2017-11-07T12:42:05.084Z,19.62
2017-11-07T12:44:32.651Z,17.67
2017-11-07T12:47:00.244Z,17.80
2017-11-07T12:49:28.582Z,19.50
2017-11-07T12:51:58.561Z,18.05
2017-11-07T12:54:26.132Z,17.12
2017-11-07T12:56:53.728Z,19.92
2017-11-07T12:59:21.299Z,18.80
2017-11-07T13:01:48.903Z,19.92
2017-11-07T13:04:16.494Z,20.95
2017-11-07T13:06:44.089Z,19.30
2017-11-07T13:09:11.677Z,20.98
2017-11-07T13:11:40.871Z,21.50
2017-11-07T13:14:09.228Z,20.88
2017-11-07T13:16:36.872Z,22.00
2017-11-07T13:19:04.477Z,23.55
2017-11-07T13:21:32.815Z,25.17
2017-11-07T13:24:00.425Z,25.85
2017-11-07T13:26:28.745Z,20.80
2017-11-07T13:28:56.344Z,24.37
2017-11-07T13:31:23.898Z,24.17
2017-11-07T13:33:51.519Z,23.75
2017-11-07T13:36:19.076Z,26.23
2017-11-07T13:38:47.119Z,24.55
2017-11-07T13:41:15.505Z,23.38
2017-11-07T13:43:43.847Z,23.08
2017-11-07T13:46:11.451Z,22.98
2017-11-07T13:48:39.789Z,23.80
2017-11-07T13:51:07.373Z,22.15
2017-11-07T13:53:34.970Z,23.33
2017-11-07T13:56:02.547Z,22.50
2017-11-07T13:58:30.153Z,21.00
2017-11-07T14:00:57.737Z,24.95
2017-11-07T14:03:26.162Z,25.88
2017-11-07T14:05:53.802Z,24.40
2017-11-07T14:08:21.395Z,24.15
2017-11-07T14:10:48.978Z,22.00
2017-11-07T14:13:16.588Z,22.08
2017-11-07T14:15:44.167Z,22.00
2017-11-07T14:18:11.739Z,22.17
2017-11-07T14:20:39.347Z,20.20
2017-11-07T14:23:06.916Z,22.50
2017-11-07T14:25:35.275Z,22.90
2017-11-07T14:28:02.859Z,22.67
2017-11-07T14:30:31.238Z,23.05
2017-11-07T14:32:59.571Z,22.23
2017-11-07T14:35:27.128Z,22.25
2017-11-07T14:37:54.713Z,24.23
2017-11-07T14:40:22.267Z,23.73
2017-11-07T14:42:49.854Z,23.83
2017-11-07T14:45:17.437Z,22.70
2017-11-07T14:47:45.773Z,23.58
2017-11-07T14:50:13.348Z,23.83
2017-11-07T14:52:40.965Z,22.83
2017-11-07T14:55:08.521Z,22.80
2017-11-07T14:57:36.087Z,21.50
2017-11-07T15:00:03.683Z,23.90
2017-11-07T15:02:32.036Z,23.02
2017-11-07T15:04:59.610Z,23.05
2017-11-07T15:07:27.167Z,21.77
2017-11-07T15:09:54.759Z,21.48
2017-11-07T15:12:22.344Z,21.73
2017-11-07T15:14:49.960Z,21.50
2017-11-07T15:17:17.536Z,18.35
2017-11-07T15:19:45.108Z,22.10
2017-11-07T15:22:12.697Z,23.00
2017-11-07T15:24:41.029Z,21.60
2017-11-07T15:27:08.619Z,21.67
2017-11-07T15:29:36.194Z,20.25
2017-11-07T15:32:03.809Z,22.37
2017-11-07T15:34:31.383Z,23.12
2017-11-07T15:36:58.988Z,21.33
2017-11-07T15:39:27.350Z,22.33
2017-11-07T15:41:54.933Z,21.85
2017-11-07T15:44:23.295Z,23.17
2017-11-07T15:46:50.853Z,23.40
2017-11-07T15:49:19.211Z,22.73
2017-11-07T15:51:46.768Z,23.98
2017-11-07T15:54:14.381Z,22.75
2017-11-07T15:56:42.716Z,22.67
2017-11-07T15:59:10.311Z,23.10
2017-11-07T16:01:37.892Z,22.17
2017-11-07T16:04:06.216Z,22.23
2017-11-07T16:06:33.799Z,22.50
2017-11-07T16:09:01.367Z,23.62
2017-11-07T16:11:28.972Z,22.08
2017-11-07T16:13:56.546Z,21.48
2017-11-07T16:16:24.133Z,22.40
2017-11-07T16:18:51.771Z,23.77
2017-11-07T16:21:19.362Z,23.62
2017-11-07T16:23:46.961Z,23.17
2017-11-07T16:26:14.531Z,24.63
2017-11-07T16:28:42.879Z,23.17
2017-11-07T16:31:10.458Z,26.02
2017-11-07T16:33:38.074Z,28.52
2017-11-07T16:36:05.637Z,25.75
2017-11-07T16:38:33.228Z,25.23
2017-11-07T16:41:00.823Z,24.00
2017-11-07T16:43:29.162Z,24.75
2017-11-07T16:45:56.751Z,24.48
2017-11-07T16:48:24.319Z,23.75
2017-11-07T16:50:52.734Z,24.98
2017-11-07T16:53:20.313Z,21.65
2017-11-07T16:55:47.915Z,25.30
2017-11-07T16:58:15.492Z,25.50
2017-11-07T17:00:43.813Z,24.35
2017-11-07T17:03:11.393Z,25.52
2017-11-07T17:05:38.980Z,24.37
2017-11-07T17:08:06.586Z,28.23
2017-11-07T17:10:34.145Z,26.08
2017-11-07T17:13:01.749Z,25.50
2017-11-07T17:15:29.319Z,23.87
2017-11-07T17:17:57.791Z,24.75
2017-11-07T17:20:25.343Z,25.27
2017-11-07T17:22:52.918Z,24.55
2017-11-07T17:25:20.493Z,25.42
2017-11-07T17:27:48.065Z,25.45
2017-11-07T17:30:15.648Z,26.02
2017-11-07T17:32:43.248Z,26.73
2017-11-07T17:35:10.831Z,27.02
2017-11-07T17:37:38.385Z,27.98
2017-11-07T17:40:05.988Z,28.33
2017-11-07T17:42:34.420Z,26.45
2017-11-07T17:45:01.981Z,29.42
2017-11-07T17:47:29.561Z,29.02
2017-11-07T17:49:57.884Z,30.37
2017-11-07T17:52:26.253Z,27.13
2017-11-07T17:54:54.608Z,23.60
2017-11-07T17:57:22.961Z,25.20
2017-11-07T17:59:50.548Z,20.73
2017-11-07T18:02:18.118Z,23.27
2017-11-07T18:04:45.716Z,21.73
2017-11-07T18:07:14.069Z,20.45
2017-11-07T18:09:41.665Z,22.83
2017-11-07T18:12:09.239Z,23.70
2017-11-07T18:14:36.843Z,22.23
2017-11-07T18:17:04.424Z,20.95
2017-11-07T18:19:32.013Z,23.08
2017-11-07T18:21:59.584Z,23.25
2017-11-07T18:24:27.142Z,23.50
2017-11-07T18:26:54.737Z,23.15
2017-11-07T18:29:22.312Z,20.12
2017-11-07T18:31:49.889Z,21.25
2017-11-07T18:34:17.462Z,18.87
2017-11-07T18:36:46.909Z,18.60
2017-11-07T18:39:14.510Z,18.85
2017-11-07T18:41:42.111Z,17.95
2017-11-07T18:44:10.447Z,17.12
2017-11-07T18:46:38.041Z,17.85
2017-11-07T18:49:06.388Z,19.75
2017-11-07T18:51:33.977Z,18.30
2017-11-07T18:54:02.340Z,20.50
2017-11-07T18:56:30.661Z,20.27
2017-11-07T18:58:58.997Z,19.45
2017-11-07T19:01:26.561Z,20.35
2017-11-07T19:03:54.111Z,18.85
2017-11-07T19:06:21.705Z,18.27
2017-11-07T19:08:50.076Z,18.15
2017-11-07T19:11:17.691Z,18.50
2017-11-07T19:13:45.291Z,17.25
2017-11-07T19:16:12.898Z,20.42
2017-11-07T19:18:40.475Z,17.75
2017-11-07T19:21:08.068Z,19.00
2017-11-07T19:23:35.690Z,22.85
2017-11-07T19:26:03.278Z,18.60
2017-11-07T19:28:30.861Z,19.10
2017-11-07T19:30:58.491Z,18.65
2017-11-07T19:33:26.082Z,29.90
2017-11-07T19:35:53.653Z,17.48
2017-11-07T19:38:21.307Z,19.35
2017-11-07T19:40:48.896Z,27.50
2017-11-07T19:43:16.498Z,18.45
2017-11-07T19:45:44.090Z,18.70
2017-11-07T19:48:11.660Z,19.05
2017-11-07T19:50:39.243Z,20.83
2017-11-07T19:53:06.803Z,20.75
2017-11-07T19:55:34.419Z,22.45
2017-11-07T19:58:01.978Z,18.15
2017-11-07T20:00:29.550Z,19.20
2017-11-07T20:02:57.148Z,19.83
2017-11-07T20:05:24.747Z,18.62
2017-11-07T20:07:52.327Z,17.05
2017-11-07T20:10:19.913Z,17.42
2017-11-07T20:12:47.537Z,21.58
2017-11-07T20:15:15.117Z,19.55
2017-11-07T20:17:42.682Z,32.97
2017-11-07T20:20:10.287Z,29.30
2017-11-07T20:22:37.890Z,19.92
2017-11-07T20:25:05.507Z,19.35
2017-11-07T20:27:33.063Z,19.25
2017-11-07T20:30:00.662Z,21.50
2017-11-07T20:32:29.024Z,22.77
2017-11-07T20:34:57.382Z,22.45
2017-11-07T20:37:25.051Z,20.75
2017-11-07T20:39:52.638Z,20.70
2017-11-07T20:42:20.986Z,22.87
2017-11-07T20:44:48.555Z,22.90
2017-11-07T20:47:16.170Z,18.70
2017-11-07T20:49:43.739Z,22.95
2017-11-07T20:52:11.307Z,20.80
2017-11-07T20:54:38.896Z,24.55
2017-11-07T20:57:06.468Z,24.92
2017-11-07T20:59:34.086Z,25.95
2017-11-07T21:02:01.672Z,23.60
2017-11-07T21:04:29.276Z,25.58
2017-11-07T21:06:56.856Z,24.42
2017-11-07T21:09:25.180Z,22.37
2017-11-07T21:11:52.783Z,22.80
2017-11-07T21:14:21.106Z,22.48
2017-11-07T21:16:48.698Z,20.37
2017-11-07T21:19:16.266Z,21.40
2017-11-07T21:21:43.879Z,25.33
2017-11-07T21:24:11.462Z,24.12
2017-11-07T21:26:39.043Z,20.95
2017-11-07T21:29:06.685Z,19.62
2017-11-07T21:31:34.271Z,22.20
2017-11-07T21:34:03.731Z,21.95
2017-11-07T21:36:31.338Z,23.33
2017-11-07T21:38:58.947Z,23.33
2017-11-07T21:41:27.301Z,23.95
2017-11-07T21:43:54.876Z,24.70
2017-11-07T21:46:23.250Z,29.58
2017-11-07T21:48:50.827Z,30.65
2017-11-07T21:51:19.198Z,30.40
2017-11-07T21:53:47.562Z,27.70
2017-11-07T21:56:15.182Z,25.00
2017-11-07T21:58:42.745Z,25.30
2017-11-07T22:01:10.402Z,24.87
2017-11-07T22:03:37.992Z,22.58
2017-11-07T22:06:05.563Z,24.40
2017-11-07T22:08:33.155Z,22.75
2017-11-07T22:11:01.497Z,24.35
2017-11-07T22:13:29.096Z,21.65
2017-11-07T22:15:56.671Z,24.00
2017-11-07T22:18:25.022Z,22.37
2017-11-07T22:20:53.406Z,18.92
2017-11-07T22:23:25.862Z,20.90
2017-11-07T22:25:53.477Z,19.73
2017-11-07T22:28:21.813Z,20.12
2017-11-07T22:30:49.399Z,22.05
2017-11-07T22:33:17.761Z,20.02
2017-11-07T22:35:45.337Z,20.45
2017-11-07T22:38:12.933Z,21.30
2017-11-07T22:40:40.500Z,20.92
2017-11-07T22:43:08.110Z,21.15
2017-11-07T22:45:35.712Z,20.02
2017-11-07T22:48:04.090Z,21.62
2017-11-07T22:50:32.427Z,22.87
2017-11-07T22:53:00.037Z,21.80
2017-11-07T22:55:28.379Z,21.33
2017-11-07T22:57:55.951Z,21.25
2017-11-07T23:00:23.576Z,19.75
2017-11-07T23:02:51.149Z,20.92
2017-11-07T23:05:21.182Z,20.52
2017-11-07T23:07:48.756Z,22.40
2017-11-07T23:10:16.359Z,21.37
2017-11-07T23:12:43.935Z,22.33
2017-11-07T23:15:11.527Z,20.88
2017-11-07T23:17:39.099Z,23.17
2017-11-07T23:20:06.705Z,23.45
2017-11-07T23:22:34.275Z,20.95
2017-11-07T23:25:01.844Z,21.95
2017-11-07T23:27:29.422Z,21.25
2017-11-07T23:29:57.010Z,21.30
2017-11-07T23:32:24.610Z,20.98
2017-11-07T23:34:52.947Z,21.05
2017-11-07T23:37:20.539Z,20.05
2017-11-07T23:39:48.874Z,21.75
2017-11-07T23:42:16.492Z,18.65
2017-11-07T23:44:44.826Z,21.10
2017-11-07T23:47:12.382Z,20.17
2017-11-07T23:49:39.956Z,19.77
2017-11-07T23:52:07.513Z,22.17
2017-11-07T23:54:35.104Z,23.20
2017-11-07T23:57:02.661Z,23.95
2017-11-07T23:59:30.256Z,21.50
